History for KNYNEWYO562

Midtown, New York, NY — Current Conditions
Daily Summary for August 22, 2017
  Current: High: Low: Average:
Temperature: 86.0°F 86.4°F 75.4°F 80.9°F
Dew Point: 77.4°F 78.4°F 73.2°F 74.7°F
Humidity: 75% 94% 72% 88%
Wind Speed: - 0.0mph - 0.0mph
Wind Gust: - 0.0mph - -
Wind: North - - North
Pressure: 29.79in 30.10in 29.79in -
Precipitation: 0.00in      
Statistics for the rest of the month
    High: Low: Average:
Temperature:   86.4°F 64.6°F 74.5°F
Dew Point:   79.7°F 57.3°F 69.7°F
Humidity:   100.0% 59.0% 85.6%
Wind Speed:   0.0mph from the North - 0.0mph
Wind Gust:   0.0mph from the North - -
Wind:   - - North
Pressure:   30.26in 29.77in -
Precipitation:   0.00in    
KNYNEWYO562 Weather Graph
Tabular Data for August 22, 2017
Time Temp. Heat Index Dew Point Pressure Wind Gust Humidity Rainfall
00:14 77.9°F - 73.8°F 30.10in - 87% -
00:34 77.7°F - 73.3°F 30.10in - 86% -
00:44 77.7°F - 73.6°F 30.09in - 87% -
01:04 77.5°F - 73.4°F 30.09in - 87% -
01:14 77.4°F - 73.6°F 30.10in - 88% -
01:34 77.2°F - 73.4°F 30.09in - 88% -
01:45 77.0°F - 73.3°F 30.08in - 88% -
02:05 76.8°F - 73.4°F 30.07in - 89% -
02:15 76.8°F - 73.4°F 30.07in - 89% -
02:35 76.8°F - 73.4°F 30.07in - 89% -
02:45 76.8°F - 73.4°F 30.07in - 89% -
03:05 76.6°F - 73.5°F 30.07in - 90% -
03:16 76.5°F - 73.7°F 30.06in - 91% -
03:36 76.3°F - 73.2°F 30.06in - 90% -
03:46 76.3°F - 73.5°F 30.05in - 91% -
04:16 76.1°F - 73.3°F 30.05in - 91% -
04:26 76.1°F - 73.3°F 30.05in - 91% -
04:36 75.9°F - 73.5°F 30.04in - 92% -
04:46 75.9°F - 73.5°F 30.04in - 92% -
05:16 75.7°F - 73.3°F 30.04in - 92% -
05:17 75.7°F - 73.3°F 30.04in - 92% -
05:26 75.7°F - 73.3°F 30.04in - 92% -
05:46 75.6°F - 73.4°F 30.04in - 93% -
05:47 75.6°F - 73.4°F 30.04in - 93% -
06:17 75.6°F - 73.4°F 30.04in - 93% -
06:46 75.6°F - 73.4°F 30.04in - 93% -
06:48 75.4°F - 73.3°F 30.04in - 93% -
07:17 75.6°F - 73.4°F 30.04in - 93% -
07:18 75.6°F - 73.4°F 30.03in - 93% -
07:27 75.6°F - 73.4°F 30.03in - 93% -
07:48 75.7°F - 73.6°F 30.04in - 93% -
07:57 75.7°F - 73.6°F 30.04in - 93% -
08:27 76.1°F - 74.3°F 30.03in - 94% -
08:47 76.3°F - 74.5°F 30.03in - 94% -
08:49 76.6°F - 74.8°F 30.03in - 94% -
09:18 77.2°F - 75.0°F 30.02in - 93% -
09:19 77.4°F - 74.9°F 30.02in - 92% -
09:40 77.5°F - 75.1°F 30.02in - 92% -
10:10 78.4°F - 75.7°F 30.01in - 91% -
10:40 79.2°F - 76.0°F 30.01in - 90% -
11:11 79.5°F - 76.1°F 30.00in - 89% -
11:41 79.9°F - 76.4°F 29.98in - 89% -
12:11 80.6°F 86.9°F 76.8°F 29.96in - 88% -
12:41 81.7°F 89.5°F 77.2°F 29.96in - 86% -
13:12 82.4°F 91.2°F 77.5°F 29.95in - 85% -
13:42 82.8°F 92.0°F 77.5°F 29.93in - 84% -
14:12 83.3°F 93.1°F 77.7°F 29.92in - 83% -
14:43 84.0°F 95.1°F 78.4°F 29.89in - 83% -
15:13 84.6°F 96.1°F 78.2°F 29.87in - 81% -
15:43 85.1°F 96.7°F 78.0°F 29.84in - 79% -
16:14 85.6°F 96.7°F 77.4°F 29.84in - 76% -
16:44 85.8°F 96.8°F 77.2°F 29.82in - 75% -
17:14 86.2°F 96.5°F 76.3°F 29.81in - 72% -
17:42 86.4°F 97.5°F 76.9°F 29.80in - 73% -
18:12 86.0°F 97.3°F 77.4°F 29.79in - 75% -
Comma Delimited File
Powered by Weather Underground, Inc.